Time;durP1;ratioP1;P1;durP2;ratioP2;P2;SDS_P1;SDS_P2;PMS_P1;PMS_P2;Temp;Humidity;BMP_temperature;BMP_pressure;BME280_temperature;BME280_humidity;BME280_pressure;Samples;Min_cycle;Max_cycle;Signal;HPM_P1;HPM_P2
2022/11/06 00:02:12;;;;;;;;;;;3.90;99.90;;;;;;2603515;54;20732;31
2022/11/06 00:04:51;;;;;;;;;;;3.80;99.90;;;;;;2603485;54;19935;31
2022/11/06 00:07:23;;;;;;;;;;;3.80;99.90;;;;;;2603556;54;20744;31
2022/11/06 00:09:56;;;;;;;;;;;3.80;99.90;;;;;;2603644;54;19934;31
2022/11/06 00:12:30;;;;;;;;;;;3.80;99.90;;;;;;2611323;46;19942;31
2022/11/06 00:15:07;;;;;;;;;;;3.70;99.90;;;;;;2622174;46;19945;31
2022/11/06 00:17:41;;;;;;;;;;;3.80;99.90;;;;;;2622090;46;19935;31
2022/11/06 00:20:15;;;;;;;;;;;3.60;99.90;;;;;;2603615;54;19940;31
2022/11/06 00:22:49;;;;;;;;;;;3.60;99.90;;;;;;2603507;54;19935;31
2022/11/06 00:25:24;;;;;;;;;;;3.60;99.90;;;;;;2622203;46;19934;31
2022/11/06 00:27:58;;;;;;;;;;;3.60;99.90;;;;;;2603416;54;20820;31
2022/11/06 00:30:35;;;;;;;;;;;3.60;99.90;;;;;;2603602;54;20782;31
2022/11/06 00:33:09;;;;;;;;;;;3.50;99.90;;;;;;2603565;54;19958;31
2022/11/06 00:35:43;;;;;;;;;;;3.50;99.90;;;;;;2603838;54;20714;31
2022/11/06 00:38:20;;;;;;;;;;;3.50;99.90;;;;;;2603541;54;19935;31
2022/11/06 00:40:54;;;;;;;;;;;3.50;99.90;;;;;;2603642;54;19960;31
2022/11/06 00:43:27;;;;;;;;;;;3.50;99.90;;;;;;2603761;54;20735;31
2022/11/06 00:46:05;;;;;;;;;;;3.50;99.90;;;;;;2603644;54;19961;31
2022/11/06 00:48:39;;;;;;;;;;;3.50;99.90;;;;;;2603328;54;19950;31
2022/11/06 00:51:14;;;;;;;;;;;3.40;99.90;;;;;;2603663;54;20751;31
2022/11/06 00:53:46;;;;;;;;;;;3.40;99.90;;;;;;2621955;46;19934;31
2022/11/06 00:56:20;;;;;;;;;;;3.30;99.90;;;;;;2621870;46;19961;31
2022/11/06 00:58:54;;;;;;;;;;;3.30;99.90;;;;;;2603402;54;20796;31
2022/11/06 01:01:31;;;;;;;;;;;3.20;99.90;;;;;;2603471;54;20757;31
2022/11/06 01:04:06;;;;;;;;;;;3.20;99.90;;;;;;2603291;54;21477;31
2022/11/06 01:06:40;;;;;;;;;;;3.10;99.90;;;;;;2603335;54;20807;31
2022/11/06 01:09:15;;;;;;;;;;;3.10;99.90;;;;;;2603401;54;20060;31
2022/11/06 01:11:49;;;;;;;;;;;3.10;99.90;;;;;;2603240;54;19935;31
2022/11/06 01:14:43;;;;;;;;;;;3.10;99.90;;;;;;2603296;54;19950;31
2022/11/06 01:17:18;;;;;;;;;;;3.10;99.90;;;;;;2603492;54;19945;31
2022/11/06 01:19:52;;;;;;;;;;;3.00;99.90;;;;;;2603521;54;20023;31
2022/11/06 01:22:26;;;;;;;;;;;3.00;99.90;;;;;;2621910;46;19965;31
2022/11/06 01:25:01;;;;;;;;;;;3.00;99.90;;;;;;2621786;46;20827;31
2022/11/06 01:27:35;;;;;;;;;;;3.00;99.90;;;;;;2612287;46;19989;31
2022/11/06 01:30:10;;;;;;;;;;;3.00;99.90;;;;;;2603311;54;20794;31
2022/11/06 01:32:47;;;;;;;;;;;3.00;99.90;;;;;;2603469;54;20773;31
2022/11/06 01:35:21;;;;;;;;;;;3.00;99.90;;;;;;2603237;54;20027;31
2022/11/06 01:37:55;;;;;;;;;;;3.00;99.90;;;;;;2603308;54;19934;31
2022/11/06 01:40:29;;;;;;;;;;;2.90;99.90;;;;;;2603440;54;20772;31
2022/11/06 01:43:04;;;;;;;;;;;2.90;99.90;;;;;;2603211;54;20802;31
2022/11/06 01:45:39;;;;;;;;;;;2.90;99.90;;;;;;2603602;54;19934;31
2022/11/06 01:48:16;;;;;;;;;;;2.90;99.90;;;;;;2603285;54;19941;31
2022/11/06 01:50:51;;;;;;;;;;;2.90;99.90;;;;;;2603432;54;19950;31
2022/11/06 01:53:24;;;;;;;;;;;2.90;99.90;;;;;;2621742;47;19942;31
2022/11/06 01:55:59;;;;;;;;;;;2.80;99.90;;;;;;2603212;54;19941;31
2022/11/06 01:58:34;;;;;;;;;;;2.80;99.90;;;;;;2621602;47;19934;31
2022/11/06 02:01:07;;;;;;;;;;;2.80;99.90;;;;;;2603215;54;19941;31
2022/11/06 02:03:46;;;;;;;;;;;2.70;99.90;;;;;;2603204;54;19961;31
2022/11/06 02:06:19;;;;;;;;;;;2.70;99.90;;;;;;2621659;47;20735;31
2022/11/06 02:08:53;;;;;;;;;;;2.70;99.90;;;;;;2604187;54;19935;31
2022/11/06 02:11:27;;;;;;;;;;;2.70;99.90;;;;;;2604200;54;20747;31
2022/11/06 02:14:03;;;;;;;;;;;2.70;99.90;;;;;;2603847;54;19941;31
2022/11/06 02:16:39;;;;;;;;;;;2.60;99.90;;;;;;2603955;54;19941;31
2022/11/06 02:19:43;;;;;;;;;;;2.60;99.90;;;;;;2604029;54;19974;31
2022/11/06 02:22:23;;;;;;;;;;;2.60;99.90;;;;;;2603952;54;20755;31
2022/11/06 02:25:03;;;;;;;;;;;2.60;99.90;;;;;;2604198;54;20745;31
2022/11/06 02:27:40;;;;;;;;;;;2.60;99.90;;;;;;2603950;54;19935;31
2022/11/06 02:30:14;;;;;;;;;;;2.60;99.90;;;;;;2603848;54;20013;31
2022/11/06 02:32:50;;;;;;;;;;;2.50;99.90;;;;;;2604045;54;19935;31
2022/11/06 02:35:25;;;;;;;;;;;2.50;99.90;;;;;;2603853;54;20782;31
2022/11/06 02:38:00;;;;;;;;;;;2.60;99.90;;;;;;2603943;54;19934;31
2022/11/06 02:40:34;;;;;;;;;;;2.50;99.90;;;;;;2603993;54;20795;31
2022/11/06 02:43:10;;;;;;;;;;;2.50;99.90;;;;;;2604004;54;19942;31
2022/11/06 02:45:46;;;;;;;;;;;2.50;99.90;;;;;;2604076;54;20738;31
2022/11/06 02:48:20;;;;;;;;;;;2.40;99.90;;;;;;2622524;46;19934;31
2022/11/06 02:50:53;;;;;;;;;;;2.30;99.90;;;;;;2612758;46;19941;31
2022/11/06 02:53:27;;;;;;;;;;;2.30;99.90;;;;;;2622135;46;20774;31
2022/11/06 02:56:01;;;;;;;;;;;2.20;99.90;;;;;;2604005;54;19946;31
2022/11/06 02:58:38;;;;;;;;;;;2.20;99.90;;;;;;2622540;46;19942;31
2022/11/06 03:01:20;;;;;;;;;;;2.20;99.90;;;;;;2622323;46;19939;31
2022/11/06 03:03:55;;;;;;;;;;;2.20;99.90;;;;;;2604082;54;19934;31
2022/11/06 03:06:31;;;;;;;;;;;2.20;99.90;;;;;;2603864;54;19935;31
2022/11/06 03:09:04;;;;;;;;;;;2.20;99.90;;;;;;2604046;54;20030;31
2022/11/06 03:11:37;;;;;;;;;;;2.20;99.90;;;;;;2603926;54;19942;31
2022/11/06 03:14:15;;;;;;;;;;;2.20;99.90;;;;;;2622283;46;19965;31
2022/11/06 03:16:51;;;;;;;;;;;2.20;99.90;;;;;;2622537;46;20777;31
2022/11/06 03:19:27;;;;;;;;;;;2.20;99.90;;;;;;2622386;46;19941;31
2022/11/06 03:22:03;;;;;;;;;;;2.20;99.90;;;;;;2603705;54;20820;31
2022/11/06 03:24:40;;;;;;;;;;;2.20;99.90;;;;;;2603773;54;20025;31
2022/11/06 03:27:14;;;;;;;;;;;2.10;99.90;;;;;;2603799;54;19935;31
2022/11/06 03:29:51;;;;;;;;;;;2.10;99.90;;;;;;2720660;39;20417;31
2022/11/06 03:32:27;;;;;;;;;;;2.10;99.90;;;;;;2603398;54;19942;31
2022/11/06 03:35:02;;;;;;;;;;;2.10;99.90;;;;;;2603756;54;20808;31
2022/11/06 03:37:35;;;;;;;;;;;2.10;99.90;;;;;;2603854;54;20758;31
2022/11/06 03:40:10;;;;;;;;;;;2.10;99.90;;;;;;2604062;54;20788;31
2022/11/06 03:42:44;;;;;;;;;;;2.10;99.90;;;;;;2622397;46;19934;31
2022/11/06 03:45:21;;;;;;;;;;;2.00;99.90;;;;;;2622282;46;19957;31
2022/11/06 03:47:56;;;;;;;;;;;2.10;99.90;;;;;;2603673;54;19960;31
2022/11/06 03:50:31;;;;;;;;;;;2.10;99.90;;;;;;2603854;54;20018;31
2022/11/06 03:53:05;;;;;;;;;;;2.00;99.90;;;;;;2622129;46;19942;31
2022/11/06 03:55:38;;;;;;;;;;;2.00;99.90;;;;;;2720327;39;22298;31
2022/11/06 03:58:12;;;;;;;;;;;2.00;99.90;;;;;;2622255;46;19934;31
2022/11/06 04:00:49;;;;;;;;;;;2.00;99.90;;;;;;2603612;54;19935;31
2022/11/06 04:03:24;;;;;;;;;;;2.00;99.90;;;;;;2603835;54;19941;31
2022/11/06 04:06:00;;;;;;;;;;;1.90;99.90;;;;;;2603624;54;20712;31
2022/11/06 04:14:07;;;;;;;;;;;1.80;99.90;;;;;;2622416;46;19940;31
2022/11/06 04:16:44;;;;;;;;;;;1.90;99.90;;;;;;2603631;54;19942;31
2022/11/06 04:19:19;;;;;;;;;;;1.80;99.90;;;;;;2603788;54;20749;31
2022/11/06 04:21:59;;;;;;;;;;;1.80;99.90;;;;;;2603573;54;20787;31
2022/11/06 04:27:57;;;;;;;;;;;1.80;99.90;;;;;;2603629;54;19935;31
2022/11/06 04:30:31;;;;;;;;;;;1.70;99.90;;;;;;2602985;54;20485;31
2022/11/06 04:33:07;;;;;;;;;;;1.70;99.90;;;;;;2603451;54;20003;31
2022/11/06 04:35:45;;;;;;;;;;;1.70;99.90;;;;;;2603621;54;19935;31
2022/11/06 04:38:21;;;;;;;;;;;1.80;99.90;;;;;;2603409;54;19997;31
2022/11/06 04:40:56;;;;;;;;;;;1.80;99.90;;;;;;2622104;46;19934;31
2022/11/06 04:43:31;;;;;;;;;;;1.70;99.90;;;;;;2603645;54;19935;31
2022/11/06 04:46:05;;;;;;;;;;;1.80;99.90;;;;;;2603693;54;20756;31
2022/11/06 04:48:41;;;;;;;;;;;1.80;99.90;;;;;;2621691;46;19934;31
2022/11/06 04:51:15;;;;;;;;;;;1.80;99.90;;;;;;2603384;54;19941;31
2022/11/06 04:53:50;;;;;;;;;;;1.70;99.90;;;;;;2603473;54;19941;31
2022/11/06 04:56:24;;;;;;;;;;;1.70;99.90;;;;;;2622399;46;19938;31
2022/11/06 04:59:02;;;;;;;;;;;1.70;99.90;;;;;;2603367;54;19942;31
2022/11/06 05:01:36;;;;;;;;;;;1.70;99.90;;;;;;2603460;54;20004;31
2022/11/06 05:04:11;;;;;;;;;;;1.70;99.90;;;;;;2603503;54;20874;31
2022/11/06 05:06:43;;;;;;;;;;;1.70;99.90;;;;;;2603682;54;19941;31
2022/11/06 05:09:17;;;;;;;;;;;1.70;99.90;;;;;;2621949;46;19941;31
2022/11/06 05:11:51;;;;;;;;;;;1.70;99.90;;;;;;2622230;46;20748;31
2022/11/06 05:14:26;;;;;;;;;;;1.70;99.90;;;;;;2603539;54;19997;31
2022/11/06 05:16:59;;;;;;;;;;;1.70;99.90;;;;;;2603354;54;20795;31
2022/11/06 05:19:36;;;;;;;;;;;1.70;99.90;;;;;;2621772;46;19930;31
2022/11/06 05:24:56;;;;;;;;;;;1.80;99.90;;;;;;2603636;54;20735;31
2022/11/06 05:27:30;;;;;;;;;;;1.70;99.90;;;;;;2621720;46;20739;31
2022/11/06 05:30:04;;;;;;;;;;;1.70;99.90;;;;;;2603387;54;19961;31
2022/11/06 05:32:38;;;;;;;;;;;1.60;99.90;;;;;;2603203;54;20012;31
2022/11/06 05:35:16;;;;;;;;;;;1.60;99.90;;;;;;2621557;46;19941;31
2022/11/06 05:37:49;;;;;;;;;;;1.60;99.90;;;;;;2603579;54;19941;31
2022/11/06 05:40:23;;;;;;;;;;;1.50;99.90;;;;;;2621723;46;19935;31
2022/11/06 05:42:57;;;;;;;;;;;1.50;99.90;;;;;;2623433;47;19962;31
2022/11/06 05:45:31;;;;;;;;;;;1.50;99.90;;;;;;2605324;54;19935;31
2022/11/06 05:48:07;;;;;;;;;;;1.50;99.90;;;;;;2605138;54;19945;31
2022/11/06 05:50:43;;;;;;;;;;;1.50;99.90;;;;;;2604408;54;20802;31
2022/11/06 05:53:18;;;;;;;;;;;1.40;99.90;;;;;;2703836;39;22282;31
2022/11/06 05:55:52;;;;;;;;;;;1.50;99.90;;;;;;2604788;54;19989;31
2022/11/06 05:58:28;;;;;;;;;;;1.40;99.90;;;;;;2605179;54;20746;31
2022/11/06 06:01:10;;;;;;;;;;;1.40;99.90;;;;;;2623269;46;20764;31
2022/11/06 06:03:45;;;;;;;;;;;1.40;99.90;;;;;;2623646;46;19998;31
2022/11/06 06:06:21;;;;;;;;;;;1.30;99.90;;;;;;2623516;46;19935;31
2022/11/06 06:08:57;;;;;;;;;;;1.30;99.90;;;;;;2604966;54;20736;31
2022/11/06 06:11:32;;;;;;;;;;;1.30;99.90;;;;;;2623659;46;19934;31
2022/11/06 06:14:04;;;;;;;;;;;1.30;99.90;;;;;;2605042;54;19961;31
2022/11/06 06:16:39;;;;;;;;;;;1.30;99.90;;;;;;2604856;54;19950;31
2022/11/06 06:19:13;;;;;;;;;;;1.30;99.90;;;;;;2605008;54;20710;31
2022/11/06 06:21:49;;;;;;;;;;;1.30;99.90;;;;;;2605023;54;19966;31
2022/11/06 06:24:24;;;;;;;;;;;1.30;99.90;;;;;;2623453;46;20826;31
2022/11/06 06:27:00;;;;;;;;;;;1.30;99.90;;;;;;2623307;46;20013;31
2022/11/06 06:29:36;;;;;;;;;;;1.30;99.90;;;;;;2605272;54;19941;31
2022/11/06 06:32:12;;;;;;;;;;;1.30;99.90;;;;;;2605106;54;19935;31
2022/11/06 06:34:48;;;;;;;;;;;1.40;99.90;;;;;;2604807;54;20769;31
2022/11/06 06:37:25;;;;;;;;;;;1.40;99.90;;;;;;2605032;54;19931;31
2022/11/06 06:39:59;;;;;;;;;;;1.50;99.90;;;;;;2604866;54;19993;31
2022/11/06 06:42:34;;;;;;;;;;;1.50;99.90;;;;;;2604983;54;19942;31
2022/11/06 06:45:10;;;;;;;;;;;1.60;99.90;;;;;;2604808;54;20001;31
2022/11/06 06:47:47;;;;;;;;;;;1.60;99.90;;;;;;2604928;54;20762;31
2022/11/06 06:50:22;;;;;;;;;;;1.70;99.90;;;;;;2623456;46;20818;31
2022/11/06 06:52:59;;;;;;;;;;;1.70;99.90;;;;;;2604361;54;20891;31
2022/11/06 06:55:34;;;;;;;;;;;1.80;99.90;;;;;;2622476;46;21199;31
2022/11/06 06:58:09;;;;;;;;;;;1.90;99.90;;;;;;2619472;46;20017;31
2022/11/06 07:00:50;;;;;;;;;;;2.00;99.90;;;;;;2604003;54;20013;31
2022/11/06 07:03:26;;;;;;;;;;;2.50;99.90;;;;;;2603822;54;19957;31
2022/11/06 07:06:06;;;;;;;;;;;2.80;99.90;;;;;;2622633;46;19934;31
2022/11/06 07:08:44;;;;;;;;;;;3.20;99.90;;;;;;2603978;54;19934;31
2022/11/06 07:11:19;;;;;;;;;;;3.90;99.90;;;;;;2604177;46;19942;31
2022/11/06 07:13:54;;;;;;;;;;;4.50;99.90;;;;;;2622294;46;19942;31
2022/11/06 07:16:31;;;;;;;;;;;5.00;99.90;;;;;;2622627;46;20745;31
2022/11/06 07:19:08;;;;;;;;;;;5.50;99.90;;;;;;2622317;46;19945;31
2022/11/06 07:21:42;;;;;;;;;;;5.90;99.90;;;;;;2603388;54;19934;31
2022/11/06 07:24:23;;;;;;;;;;;6.00;99.90;;;;;;2622137;46;19961;31
2022/11/06 07:26:59;;;;;;;;;;;6.10;99.90;;;;;;2603968;54;20001;31
2022/11/06 07:29:34;;;;;;;;;;;6.20;99.90;;;;;;2622088;46;19942;31
2022/11/06 07:32:10;;;;;;;;;;;6.40;99.90;;;;;;2603694;54;20810;31
2022/11/06 07:34:44;;;;;;;;;;;6.70;99.90;;;;;;2621951;46;19997;31
2022/11/06 07:37:19;;;;;;;;;;;7.50;99.90;;;;;;2604020;54;19935;31
2022/11/06 07:39:57;;;;;;;;;;;7.60;99.90;;;;;;2622177;46;19949;31
2022/11/06 07:42:31;;;;;;;;;;;7.80;99.90;;;;;;2603670;54;19939;31
2022/11/06 07:45:12;;;;;;;;;;;8.00;99.90;;;;;;2621966;46;20030;31
2022/11/06 07:47:47;;;;;;;;;;;8.30;99.90;;;;;;2603906;54;19942;31
2022/11/06 07:50:24;;;;;;;;;;;8.80;99.90;;;;;;2622059;46;19941;31
2022/11/06 07:53:04;;;;;;;;;;;9.20;99.90;;;;;;2622015;46;19942;31
2022/11/06 07:55:41;;;;;;;;;;;9.30;99.90;;;;;;2603651;54;20760;31
2022/11/06 07:58:16;;;;;;;;;;;9.60;99.90;;;;;;2603557;54;19946;31
2022/11/06 08:00:51;;;;;;;;;;;9.80;99.90;;;;;;2617813;46;20805;31
2022/11/06 08:03:29;;;;;;;;;;;10.00;99.90;;;;;;2603759;54;19934;31
2022/11/06 08:08:37;;;;;;;;;;;10.60;99.90;;;;;;2621910;46;20896;31
2022/11/06 08:11:15;;;;;;;;;;;10.90;99.90;;;;;;2602812;54;19941;31
2022/11/06 08:13:49;;;;;;;;;;;11.00;99.90;;;;;;2603372;54;20762;31
2022/11/06 08:16:25;;;;;;;;;;;11.00;99.90;;;;;;2622231;46;19934;31
2022/11/06 08:19:00;;;;;;;;;;;11.10;99.90;;;;;;2603486;54;20785;31
2022/11/06 08:21:36;;;;;;;;;;;11.30;99.90;;;;;;2621573;46;19935;31
2022/11/06 08:24:11;;;;;;;;;;;11.70;99.90;;;;;;2615881;46;19950;31
2022/11/06 08:26:57;;;;;;;;;;;11.70;99.90;;;;;;2621901;46;20055;31
2022/11/06 08:29:31;;;;;;;;;;;11.70;99.90;;;;;;2621925;46;19962;31
2022/11/06 08:32:10;;;;;;;;;;;11.90;99.90;;;;;;2603515;54;20851;31
2022/11/06 08:34:47;;;;;;;;;;;12.10;99.90;;;;;;2603360;54;20776;31
2022/11/06 08:37:22;;;;;;;;;;;12.30;99.90;;;;;;2603845;54;19938;31
2022/11/06 08:39:56;;;;;;;;;;;12.50;99.90;;;;;;2603413;54;20779;31
2022/11/06 08:42:32;;;;;;;;;;;12.70;99.90;;;;;;2603420;54;19934;31
2022/11/06 08:45:07;;;;;;;;;;;12.80;99.90;;;;;;2621686;46;20720;31
2022/11/06 08:47:42;;;;;;;;;;;12.90;99.90;;;;;;2602796;54;19942;31
2022/11/06 08:50:22;;;;;;;;;;;13.10;99.90;;;;;;2622278;46;19934;31
2022/11/06 08:52:59;;;;;;;;;;;13.00;99.90;;;;;;2621616;46;22195;31
2022/11/06 08:55:34;;;;;;;;;;;13.10;99.90;;;;;;2603465;54;20797;31
2022/11/06 08:58:12;;;;;;;;;;;13.30;99.90;;;;;;2621794;46;19938;31
2022/11/06 09:00:47;;;;;;;;;;;13.30;99.90;;;;;;2621876;46;19946;31
2022/11/06 09:03:20;;;;;;;;;;;13.40;99.90;;;;;;2621970;46;19935;31
2022/11/06 09:05:54;;;;;;;;;;;13.40;99.90;;;;;;2603670;54;19934;31
2022/11/06 09:08:31;;;;;;;;;;;13.40;99.90;;;;;;2616742;46;19934;31
2022/11/06 09:11:07;;;;;;;;;;;13.50;99.90;;;;;;2609031;46;20756;31
2022/11/06 09:13:44;;;;;;;;;;;13.70;99.90;;;;;;2621855;46;20823;31
2022/11/06 09:16:21;;;;;;;;;;;13.80;99.90;;;;;;2603020;54;19942;31
2022/11/06 09:18:56;;;;;;;;;;;13.90;99.90;;;;;;2603402;54;19934;31
2022/11/06 09:21:31;;;;;;;;;;;13.90;99.90;;;;;;2603240;47;20852;31
2022/11/06 09:24:04;;;;;;;;;;;13.60;99.90;;;;;;2622109;46;19942;31
2022/11/06 09:26:38;;;;;;;;;;;13.60;99.90;;;;;;2621883;46;20692;31
2022/11/06 09:29:16;;;;;;;;;;;13.70;99.90;;;;;;2602684;54;20807;31
2022/11/06 09:31:50;;;;;;;;;;;13.80;99.90;;;;;;2622138;46;19989;31
2022/11/06 09:34:24;;;;;;;;;;;13.80;99.90;;;;;;2603332;54;19993;31
2022/11/06 09:36:59;;;;;;;;;;;13.90;99.90;;;;;;2603289;54;20740;31
2022/11/06 09:39:34;;;;;;;;;;;13.90;99.90;;;;;;2603209;54;19934;31
2022/11/06 09:42:10;;;;;;;;;;;14.00;99.90;;;;;;2603216;54;20777;31
2022/11/06 09:44:51;;;;;;;;;;;13.90;99.90;;;;;;2603359;54;20736;31
2022/11/06 09:47:24;;;;;;;;;;;14.00;99.90;;;;;;2621840;47;19938;31
2022/11/06 09:50:01;;;;;;;;;;;14.00;99.90;;;;;;2603438;54;19950;31
2022/11/06 09:52:36;;;;;;;;;;;13.90;99.90;;;;;;2603389;54;20749;31
2022/11/06 09:55:12;;;;;;;;;;;13.90;99.90;;;;;;2602365;54;20781;31
2022/11/06 09:57:47;;;;;;;;;;;13.90;99.90;;;;;;2621951;47;19935;31
2022/11/06 10:00:23;;;;;;;;;;;13.80;99.90;;;;;;2621540;47;20680;31
2022/11/06 10:02:59;;;;;;;;;;;13.70;99.90;;;;;;2603269;54;19949;31
2022/11/06 10:05:36;;;;;;;;;;;13.60;99.90;;;;;;2603337;54;20729;31
2022/11/06 10:08:14;;;;;;;;;;;13.50;99.90;;;;;;2602546;54;20813;31
2022/11/06 10:10:52;;;;;;;;;;;13.40;99.90;;;;;;2603102;54;19946;31
2022/11/06 10:13:33;;;;;;;;;;;13.50;99.90;;;;;;2621541;47;20500;31
2022/11/06 10:16:11;;;;;;;;;;;13.50;99.90;;;;;;2602960;54;20811;31
2022/11/06 10:18:47;;;;;;;;;;;13.50;99.90;;;;;;2621600;47;19935;31
2022/11/06 10:23:55;;;;;;;;;;;13.50;99.90;;;;;;2603229;54;19934;31
2022/11/06 10:26:32;;;;;;;;;;;13.50;99.90;;;;;;2603029;54;20733;31
2022/11/06 10:29:16;;;;;;;;;;;13.50;99.90;;;;;;2603536;54;19935;31
2022/11/06 10:31:56;;;;;;;;;;;13.50;99.90;;;;;;2622519;46;20033;31
2022/11/06 10:34:30;;;;;;;;;;;13.50;99.90;;;;;;2604078;54;20009;31
2022/11/06 10:37:08;;;;;;;;;;;13.50;99.90;;;;;;2622554;46;19935;31
2022/11/06 10:39:43;;;;;;;;;;;13.40;99.90;;;;;;2702464;39;21390;31
2022/11/06 10:42:19;;;;;;;;;;;13.30;99.90;;;;;;2622397;46;20006;31
2022/11/06 10:44:57;;;;;;;;;;;13.20;99.90;;;;;;2603832;54;20868;31
2022/11/06 10:47:35;;;;;;;;;;;13.10;99.90;;;;;;2603684;54;21445;31
2022/11/06 10:50:12;;;;;;;;;;;13.10;99.90;;;;;;2603850;54;20789;31
2022/11/06 10:52:49;;;;;;;;;;;13.00;99.90;;;;;;2603131;54;20001;31
2022/11/06 10:55:33;;;;;;;;;;;12.80;99.90;;;;;;2603384;54;20743;31
2022/11/06 10:58:07;;;;;;;;;;;12.70;99.90;;;;;;2622278;46;20474;31
2022/11/06 11:00:42;;;;;;;;;;;12.60;99.90;;;;;;2603773;54;19943;31
2022/11/06 11:03:23;;;;;;;;;;;12.50;99.90;;;;;;2622149;46;19965;31
2022/11/06 11:05:58;;;;;;;;;;;12.40;99.90;;;;;;2702503;39;20399;31
2022/11/06 11:08:36;;;;;;;;;;;12.40;99.90;;;;;;2603054;54;20537;31
2022/11/06 11:11:24;;;;;;;;;;;12.30;99.90;;;;;;2602881;54;19947;31
2022/11/06 11:14:13;;;;;;;;;;;12.30;99.90;;;;;;2603883;54;19935;31
2022/11/06 11:16:49;;;;;;;;;;;12.30;99.90;;;;;;2603614;54;20006;31
2022/11/06 11:19:24;;;;;;;;;;;12.20;99.90;;;;;;2720776;39;20389;31
2022/11/06 11:22:02;;;;;;;;;;;12.20;99.90;;;;;;2603711;54;20798;31
2022/11/06 11:24:39;;;;;;;;;;;12.10;99.90;;;;;;2622606;46;19934;31
2022/11/06 11:27:16;;;;;;;;;;;12.10;99.90;;;;;;2603668;54;20793;31
2022/11/06 11:29:50;;;;;;;;;;;12.00;99.90;;;;;;2603783;54;19941;31
2022/11/06 11:32:27;;;;;;;;;;;12.00;99.90;;;;;;2622194;46;19934;31
2022/11/06 11:35:02;;;;;;;;;;;12.00;99.90;;;;;;2603503;54;20709;31
2022/11/06 11:37:40;;;;;;;;;;;11.90;99.90;;;;;;2603690;54;20021;31
2022/11/06 11:40:21;;;;;;;;;;;12.00;99.90;;;;;;2603472;54;20772;31
2022/11/06 11:42:56;;;;;;;;;;;12.00;99.90;;;;;;2603804;54;20808;31
2022/11/06 11:45:32;;;;;;;;;;;12.00;99.90;;;;;;2622228;46;20804;31
2022/11/06 11:48:14;;;;;;;;;;;11.90;99.90;;;;;;2622271;46;20798;31
2022/11/06 11:50:50;;;;;;;;;;;11.90;99.90;;;;;;2603635;54;20772;31
2022/11/06 11:53:29;;;;;;;;;;;11.90;99.90;;;;;;2603603;54;20779;31
2022/11/06 11:56:02;;;;;;;;;;;11.90;99.90;;;;;;2603708;54;20794;31
2022/11/06 11:58:36;;;;;;;;;;;11.80;99.90;;;;;;2622130;46;19941;31
2022/11/06 12:01:13;;;;;;;;;;;11.80;99.90;;;;;;2603623;54;20473;31
2022/11/06 12:03:48;;;;;;;;;;;11.90;99.90;;;;;;2622132;46;19934;31
2022/11/06 12:06:23;;;;;;;;;;;11.80;99.90;;;;;;2603766;54;20724;31
2022/11/06 12:09:00;;;;;;;;;;;11.90;99.90;;;;;;2603728;54;19938;31
2022/11/06 12:11:34;;;;;;;;;;;11.80;99.90;;;;;;2622122;46;20780;31
2022/11/06 12:14:19;;;;;;;;;;;11.80;99.90;;;;;;2603561;54;20009;31
2022/11/06 12:16:54;;;;;;;;;;;11.90;99.90;;;;;;2603420;54;20690;31
2022/11/06 12:19:29;;;;;;;;;;;11.90;99.90;;;;;;2603636;54;20728;31
2022/11/06 12:22:07;;;;;;;;;;;11.90;99.90;;;;;;2603831;54;20777;31
2022/11/06 12:24:48;;;;;;;;;;;11.90;99.90;;;;;;2603842;54;19943;31
2022/11/06 12:27:24;;;;;;;;;;;11.90;99.90;;;;;;2603483;54;20731;31
2022/11/06 12:30:03;;;;;;;;;;;11.90;99.90;;;;;;2603508;54;20771;31
2022/11/06 12:32:41;;;;;;;;;;;11.90;99.90;;;;;;2603535;54;20025;31
2022/11/06 12:35:17;;;;;;;;;;;11.90;99.90;;;;;;2603656;54;19935;31
2022/11/06 12:37:54;;;;;;;;;;;11.80;99.90;;;;;;2621714;46;20762;31
2022/11/06 12:40:33;;;;;;;;;;;11.80;99.90;;;;;;2614767;46;21306;31
2022/11/06 12:43:15;;;;;;;;;;;11.80;99.90;;;;;;2603701;54;20759;31
2022/11/06 12:45:57;;;;;;;;;;;11.80;99.90;;;;;;2603608;54;19934;31
2022/11/06 12:48:49;;;;;;;;;;;11.80;99.90;;;;;;2603459;54;20372;31
2022/11/06 12:51:25;;;;;;;;;;;11.70;99.90;;;;;;2621370;46;19946;31
2022/11/06 12:54:02;;;;;;;;;;;11.70;99.90;;;;;;2603547;54;20750;31
2022/11/06 12:56:45;;;;;;;;;;;11.70;99.90;;;;;;2603535;54;19941;31
2022/11/06 12:59:23;;;;;;;;;;;11.70;99.90;;;;;;2603383;54;20706;31
2022/11/06 13:02:02;;;;;;;;;;;11.70;99.90;;;;;;2622102;46;19941;31
2022/11/06 13:04:38;;;;;;;;;;;11.70;99.90;;;;;;2603485;54;20026;31
2022/11/06 13:07:25;;;;;;;;;;;11.70;99.90;;;;;;2603495;54;20777;31
2022/11/06 13:10:10;;;;;;;;;;;11.70;99.90;;;;;;2603659;54;20671;31
2022/11/06 13:12:59;;;;;;;;;;;11.70;99.90;;;;;;2621818;46;19934;31
2022/11/06 13:15:38;;;;;;;;;;;11.70;99.90;;;;;;2622034;46;19935;31
2022/11/06 13:18:15;;;;;;;;;;;11.70;99.90;;;;;;2602603;54;20779;31
2022/11/06 13:20:52;;;;;;;;;;;11.70;99.90;;;;;;2603358;54;19934;31
2022/11/06 13:23:29;;;;;;;;;;;11.70;99.90;;;;;;2603310;54;19934;31
2022/11/06 13:26:05;;;;;;;;;;;11.70;99.90;;;;;;2603435;54;20731;31
2022/11/06 13:28:40;;;;;;;;;;;11.70;99.90;;;;;;2621885;46;20791;31
2022/11/06 13:31:17;;;;;;;;;;;11.70;99.90;;;;;;2603256;54;19934;31
2022/11/06 13:33:55;;;;;;;;;;;11.70;99.90;;;;;;2603367;54;20770;31
2022/11/06 13:36:34;;;;;;;;;;;11.70;99.90;;;;;;2621494;46;19943;31
2022/11/06 13:41:40;;;;;;;;;;;11.60;99.90;;;;;;2622029;46;20761;31
2022/11/06 13:44:15;;;;;;;;;;;11.60;99.90;;;;;;2603270;54;19996;31
2022/11/06 13:46:54;;;;;;;;;;;11.60;99.90;;;;;;2621911;47;19957;31
2022/11/06 13:49:30;;;;;;;;;;;11.60;99.90;;;;;;2603402;54;20870;31
2022/11/06 13:52:05;;;;;;;;;;;11.50;99.90;;;;;;2603220;54;20776;31
2022/11/06 13:54:41;;;;;;;;;;;11.50;99.90;;;;;;2603204;54;20005;31
2022/11/06 13:57:24;;;;;;;;;;;11.50;99.90;;;;;;2603027;54;20774;31
2022/11/06 14:00:01;;;;;;;;;;;11.50;99.90;;;;;;2621735;47;19942;31
2022/11/06 14:02:46;;;;;;;;;;;11.50;99.90;;;;;;2622129;47;19934;31
2022/11/06 14:05:37;;;;;;;;;;;11.50;99.90;;;;;;2622691;46;19961;31
2022/11/06 14:10:47;;;;;;;;;;;11.40;99.90;;;;;;2604003;54;19941;31
2022/11/06 14:13:25;;;;;;;;;;;11.40;99.90;;;;;;2622710;46;19934;31
2022/11/06 14:16:17;;;;;;;;;;;11.40;99.90;;;;;;2613409;46;20799;31
2022/11/06 14:18:58;;;;;;;;;;;11.40;99.90;;;;;;2603892;54;20022;31
2022/11/06 14:21:45;;;;;;;;;;;11.40;99.90;;;;;;2604214;54;19938;31
2022/11/06 14:24:39;;;;;;;;;;;11.30;99.90;;;;;;2603966;54;19946;31
2022/11/06 14:27:15;;;;;;;;;;;11.30;99.90;;;;;;2622297;46;20771;31
2022/11/06 14:29:59;;;;;;;;;;;11.30;99.90;;;;;;2622443;46;20022;31
2022/11/06 14:32:34;;;;;;;;;;;11.30;99.90;;;;;;2604165;54;20808;31
2022/11/06 14:35:24;;;;;;;;;;;11.20;99.90;;;;;;2622578;46;20005;31
2022/11/06 14:38:13;;;;;;;;;;;11.20;99.90;;;;;;2622493;46;19934;31
2022/11/06 14:40:51;;;;;;;;;;;11.20;99.90;;;;;;2603838;54;20500;31
2022/11/06 14:43:28;;;;;;;;;;;11.20;99.90;;;;;;2613974;46;19942;31
2022/11/06 14:46:03;;;;;;;;;;;11.10;99.90;;;;;;2603603;54;20017;31
2022/11/06 14:48:39;;;;;;;;;;;11.10;99.90;;;;;;2604052;54;19935;31
2022/11/06 14:51:14;;;;;;;;;;;11.10;99.90;;;;;;2603719;54;19934;31
2022/11/06 14:53:48;;;;;;;;;;;11.10;99.90;;;;;;2603996;54;19942;31
2022/11/06 14:56:27;;;;;;;;;;;11.00;99.90;;;;;;2622367;46;19935;31
2022/11/06 14:59:02;;;;;;;;;;;11.00;99.90;;;;;;2622570;46;19934;31
2022/11/06 15:01:36;;;;;;;;;;;10.90;99.90;;;;;;2603791;54;19938;31
2022/11/06 15:04:16;;;;;;;;;;;10.90;99.90;;;;;;2603803;54;20702;31
2022/11/06 15:06:50;;;;;;;;;;;10.80;99.90;;;;;;2622400;46;20082;31
2022/11/06 15:09:40;;;;;;;;;;;10.80;99.90;;;;;;2603806;54;20794;31
2022/11/06 15:12:17;;;;;;;;;;;10.70;99.90;;;;;;2603734;54;20765;31
2022/11/06 15:14:56;;;;;;;;;;;10.70;99.90;;;;;;2603385;54;20497;31
2022/11/06 15:17:30;;;;;;;;;;;10.60;99.90;;;;;;2603755;54;20745;31
2022/11/06 15:20:08;;;;;;;;;;;10.50;99.90;;;;;;2603965;54;19942;31
2022/11/06 15:22:43;;;;;;;;;;;10.40;99.90;;;;;;2622327;46;19957;31
2022/11/06 15:25:22;;;;;;;;;;;10.40;99.90;;;;;;2603990;54;19942;31
2022/11/06 15:30:29;;;;;;;;;;;10.30;99.90;;;;;;2603409;54;19942;31
2022/11/06 15:33:03;;;;;;;;;;;10.20;99.90;;;;;;2622138;46;19946;31
2022/11/06 15:35:37;;;;;;;;;;;10.20;99.90;;;;;;2603922;54;19934;31
2022/11/06 15:38:12;;;;;;;;;;;10.10;99.90;;;;;;2603555;54;20796;31
2022/11/06 15:40:47;;;;;;;;;;;10.00;99.90;;;;;;2603797;54;19935;31
2022/11/06 15:43:27;;;;;;;;;;;10.00;99.90;;;;;;2603741;54;20014;31
2022/11/06 15:46:07;;;;;;;;;;;9.90;99.90;;;;;;2603655;54;20841;31
2022/11/06 15:48:41;;;;;;;;;;;9.80;99.90;;;;;;2622001;46;19942;31
2022/11/06 15:51:21;;;;;;;;;;;9.80;99.90;;;;;;2603401;54;19957;31
2022/11/06 15:53:55;;;;;;;;;;;9.70;99.90;;;;;;2622048;46;19946;31
2022/11/06 15:56:30;;;;;;;;;;;9.70;99.90;;;;;;2603542;54;20771;31